Time;durP1;ratioP1;P1;durP2;ratioP2;P2;SDS_P1;SDS_P2;PMS_P1;PMS_P2;Temp;Humidity;BMP_temperature;BMP_pressure;BME280_temperature;BME280_humidity;BME280_pressure;Samples;Min_cycle;Max_cycle;Signal;HPM_P1;HPM_P2
2022/09/25 00:01:07;;;;;;;19.70;16.63;;;;;;;;;;5053287;28;20188;-86
2022/09/25 00:04:11;;;;;;;21.47;17.37;;;;;;;;;;5088462;28;20182;-86
2022/09/25 00:07:15;;;;;;;18.27;15.73;;;;;;;;;;5065017;28;20226;-85
2022/09/25 00:10:19;;;;;;;19.10;15.63;;;;;;;;;;5053789;28;20187;-85
2022/09/25 00:13:24;;;;;;;22.47;15.70;;;;;;;;;;5064619;28;20230;-85
2022/09/25 00:16:30;;;;;;;18.57;15.07;;;;;;;;;;5064717;28;20202;-85
2022/09/25 00:19:49;;;;;;;18.37;15.23;;;;;;;;;;5053203;28;20191;-85
2022/09/25 00:22:53;;;;;;;16.80;14.63;;;;;;;;;;5076057;28;20222;-85
2022/09/25 00:25:59;;;;;;;22.97;14.53;;;;;;;;;;5076006;28;20207;-85
2022/09/25 00:29:04;;;;;;;19.43;15.20;;;;;;;;;;5076155;28;20183;-85
2022/09/25 00:32:10;;;;;;;20.33;16.50;;;;;;;;;;5076053;28;20570;-85
2022/09/25 00:35:14;;;;;;;22.47;17.07;;;;;;;;;;5069053;28;20183;-86
2022/09/25 00:38:19;;;;;;;19.20;16.63;;;;;;;;;;5070188;28;20558;-86
2022/09/25 00:41:25;;;;;;;19.73;16.30;;;;;;;;;;5058884;28;20562;-86
2022/09/25 00:44:59;;;;;;;18.33;16.33;;;;;;;;;;5082154;28;20198;-86
2022/09/25 00:48:12;;;;;;;20.20;16.90;;;;;;;;;;5069409;28;20195;-86
2022/09/25 00:51:19;;;;;;;25.90;21.00;;;;;;;;;;5070981;28;20195;-85
2022/09/25 00:54:37;;;;;;;27.37;21.17;;;;;;;;;;5072678;28;20199;-86
2022/09/25 00:57:47;;;;;;;23.50;19.47;;;;;;;;;;5073242;28;20179;-85
2022/09/25 01:00:52;;;;;;;25.47;18.63;;;;;;;;;;5073227;28;20184;-86
2022/09/25 01:03:59;;;;;;;22.90;18.97;;;;;;;;;;5073491;28;20182;-86
2022/09/25 01:07:04;;;;;;;27.20;19.97;;;;;;;;;;5073737;28;20214;-86
2022/09/25 01:10:09;;;;;;;29.40;21.50;;;;;;;;;;5072097;28;20190;-86
2022/09/25 01:13:14;;;;;;;25.57;20.73;;;;;;;;;;5052063;28;20230;-85
2022/09/25 01:16:20;;;;;;;30.03;22.23;;;;;;;;;;5075813;28;20242;-85
2022/09/25 01:19:25;;;;;;;28.00;21.23;;;;;;;;;;5063827;28;20187;-85
2022/09/25 01:23:05;;;;;;;29.17;23.70;;;;;;;;;;5063819;28;20213;-84
2022/09/25 01:26:43;;;;;;;26.13;20.83;;;;;;;;;;5063549;28;20214;-85
2022/09/25 01:30:00;;;;;;;26.10;20.67;;;;;;;;;;5052100;28;20192;-85
2022/09/25 01:33:17;;;;;;;25.07;20.00;;;;;;;;;;5063580;28;20223;-85
2022/09/25 01:36:36;;;;;;;24.07;18.67;;;;;;;;;;5065713;28;20693;-86
2022/09/25 01:39:45;;;;;;;25.60;20.90;;;;;;;;;;5073599;28;20209;-86
2022/09/25 01:43:00;;;;;;;25.43;19.97;;;;;;;;;;5072793;28;20569;-85
2022/09/25 01:46:14;;;;;;;26.17;20.60;;;;;;;;;;5083475;28;20207;-85
2022/09/25 01:49:30;;;;;;;29.77;23.30;;;;;;;;;;5072318;28;20203;-86
2022/09/25 01:52:39;;;;;;;27.67;21.27;;;;;;;;;;5073156;28;20215;-85
2022/09/25 01:55:53;;;;;;;26.40;19.77;;;;;;;;;;5096387;28;20207;-85
2022/09/25 01:59:09;;;;;;;25.43;19.90;;;;;;;;;;5061194;28;20188;-85
2022/09/25 02:02:18;;;;;;;29.57;22.20;;;;;;;;;;5073062;28;20208;-85
2022/09/25 02:05:33;;;;;;;30.13;23.40;;;;;;;;;;5061978;28;20179;-84
2022/09/25 02:08:46;;;;;;;28.20;22.37;;;;;;;;;;5073398;28;20635;-85
2022/09/25 02:11:55;;;;;;;32.80;22.63;;;;;;;;;;5061729;28;20221;-85
2022/09/25 02:15:04;;;;;;;30.17;21.43;;;;;;;;;;5083679;28;20176;-85
2022/09/25 02:21:49;;;;;;;32.50;23.37;;;;;;;;;;5070637;28;20231;-85
2022/09/25 02:25:08;;;;;;;29.37;21.60;;;;;;;;;;5083956;28;20194;-85
2022/09/25 02:28:13;;;;;;;27.17;20.50;;;;;;;;;;5071755;28;20218;-85
2022/09/25 02:31:18;;;;;;;28.77;21.10;;;;;;;;;;5071702;28;20194;-85
2022/09/25 02:34:22;;;;;;;28.57;21.93;;;;;;;;;;5083303;28;20206;-85
2022/09/25 02:37:27;;;;;;;24.67;21.07;;;;;;;;;;5060642;28;20191;-85
2022/09/25 02:41:20;;;;;;;26.67;21.20;;;;;;;;;;5072739;28;20178;-85
2022/09/25 02:44:43;;;;;;;25.83;20.93;;;;;;;;;;5062786;28;20206;-85
2022/09/25 02:48:27;;;;;;;21.07;18.63;;;;;;;;;;5072365;28;20215;-84
2022/09/25 02:51:43;;;;;;;25.67;20.40;;;;;;;;;;5071443;28;20191;-85
2022/09/25 02:55:03;;;;;;;43.83;22.83;;;;;;;;;;5072031;28;20190;-85
2022/09/25 02:58:14;;;;;;;59.43;24.97;;;;;;;;;;5072592;28;20194;-85
2022/09/25 03:01:22;;;;;;;51.53;24.20;;;;;;;;;;5060951;28;20190;-85
2022/09/25 03:04:28;;;;;;;28.57;21.77;;;;;;;;;;5071809;28;20190;-85
2022/09/25 03:08:36;;;;;;;38.47;22.60;;;;;;;;;;5059837;28;20214;-85
2022/09/25 03:10:58;;;;;;;28.57;22.27;;;;;;;;;;5085211;28;20557;-84
2022/09/25 03:14:02;;;;;;;33.47;21.07;;;;;;;;;;5071687;28;20189;-84
2022/09/25 03:17:08;;;;;;;52.07;24.20;;;;;;;;;;5071851;28;20190;-84
2022/09/25 03:20:12;;;;;;;75.30;26.23;;;;;;;;;;5059870;28;20186;-85
2022/09/25 03:23:17;;;;;;;67.87;25.00;;;;;;;;;;5059568;28;20226;-84
2022/09/25 03:26:23;;;;;;;36.17;24.60;;;;;;;;;;5072009;28;20184;-85
2022/09/25 03:29:29;;;;;;;88.10;27.10;;;;;;;;;;5071897;28;20293;-85
2022/09/25 03:32:34;;;;;;;28.93;21.20;;;;;;;;;;5072974;28;20222;-85
2022/09/25 03:35:39;;;;;;;39.10;27.17;;;;;;;;;;5075454;28;20250;-85
2022/09/25 03:38:45;;;;;;;37.30;27.27;;;;;;;;;;5070007;28;20187;-84
2022/09/25 03:41:49;;;;;;;39.77;26.47;;;;;;;;;;5065439;28;20226;-84
2022/09/25 03:44:53;;;;;;;95.57;29.17;;;;;;;;;;5065874;28;20186;-84
2022/09/25 03:47:57;;;;;;;31.67;24.27;;;;;;;;;;5054084;28;20214;-84
2022/09/25 03:51:02;;;;;;;43.53;27.13;;;;;;;;;;5088789;28;20183;-84
2022/09/25 03:54:06;;;;;;;56.63;27.53;;;;;;;;;;5076927;28;20206;-84
2022/09/25 03:57:11;;;;;;;32.67;24.20;;;;;;;;;;5065129;28;20213;-84
2022/09/25 04:00:16;;;;;;;34.00;25.50;;;;;;;;;;5065209;28;20187;-84
2022/09/25 04:03:21;;;;;;;34.20;24.87;;;;;;;;;;5076407;28;20222;-84
2022/09/25 04:06:25;;;;;;;34.70;25.07;;;;;;;;;;5065301;28;20187;-84
2022/09/25 04:09:31;;;;;;;28.83;22.97;;;;;;;;;;5065204;28;20183;-84
2022/09/25 04:12:35;;;;;;;30.47;22.87;;;;;;;;;;5064790;28;20717;-84
2022/09/25 04:15:41;;;;;;;44.53;24.43;;;;;;;;;;5065399;28;20182;-86
2022/09/25 04:18:45;;;;;;;71.43;26.87;;;;;;;;;;5065183;28;20633;-84
2022/09/25 04:21:49;;;;;;;50.57;24.80;;;;;;;;;;5065498;28;20222;-84
2022/09/25 04:24:53;;;;;;;35.60;25.10;;;;;;;;;;5054065;28;20183;-84
2022/09/25 04:27:58;;;;;;;31.40;24.00;;;;;;;;;;5066027;28;20214;-84
2022/09/25 04:31:02;;;;;;;84.73;27.57;;;;;;;;;;5065220;28;20187;-84
2022/09/25 04:34:06;;;;;;;29.73;21.40;;;;;;;;;;5054528;28;20334;-84
2022/09/25 04:37:12;;;;;;;32.20;24.00;;;;;;;;;;5054809;28;20182;-84
2022/09/25 04:40:17;;;;;;;33.33;25.83;;;;;;;;;;5065688;28;20198;-84
2022/09/25 04:43:21;;;;;;;29.47;22.70;;;;;;;;;;5064705;28;20218;-84
2022/09/25 04:46:26;;;;;;;30.97;25.17;;;;;;;;;;5065006;28;20191;-84
2022/09/25 04:49:30;;;;;;;40.87;24.90;;;;;;;;;;5065596;28;20250;-84
2022/09/25 04:52:34;;;;;;;76.30;28.83;;;;;;;;;;5065297;28;20222;-84
2022/09/25 04:55:38;;;;;;;31.17;23.70;;;;;;;;;;5065031;28;20714;-84
2022/09/25 04:58:45;;;;;;;31.10;24.00;;;;;;;;;;5064548;28;20198;-84
2022/09/25 05:01:49;;;;;;;37.93;25.83;;;;;;;;;;5064487;28;20214;-84
2022/09/25 05:04:53;;;;;;;38.77;25.13;;;;;;;;;;5064143;28;20202;-84
2022/09/25 05:07:59;;;;;;;35.03;26.37;;;;;;;;;;5064229;28;20226;-84
2022/09/25 05:11:03;;;;;;;31.87;25.27;;;;;;;;;;5053542;28;20558;-84
2022/09/25 05:14:07;;;;;;;30.97;23.37;;;;;;;;;;5064068;28;20254;-84
2022/09/25 05:17:12;;;;;;;34.40;21.67;;;;;;;;;;5088444;28;20233;-84
2022/09/25 05:20:16;;;;;;;61.50;25.57;;;;;;;;;;5065164;28;20202;-84
2022/09/25 05:23:20;;;;;;;39.30;23.37;;;;;;;;;;5064790;28;20222;-83
2022/09/25 05:26:25;;;;;;;31.30;23.97;;;;;;;;;;5064627;28;20206;-83
2022/09/25 05:29:30;;;;;;;27.67;22.50;;;;;;;;;;5053882;28;20183;-83
2022/09/25 05:32:34;;;;;;;43.93;24.77;;;;;;;;;;5063727;28;20222;-83
2022/09/25 05:35:38;;;;;;;26.83;22.40;;;;;;;;;;5053085;28;20183;-84
2022/09/25 05:38:43;;;;;;;46.13;24.00;;;;;;;;;;5052854;28;20186;-84
2022/09/25 05:41:47;;;;;;;37.80;23.43;;;;;;;;;;5064730;28;20708;-83
2022/09/25 05:44:51;;;;;;;92.73;26.20;;;;;;;;;;5066128;28;20183;-84
2022/09/25 05:48:01;;;;;;;43.43;24.27;;;;;;;;;;5063259;28;20677;-84
2022/09/25 05:51:05;;;;;;;41.07;23.67;;;;;;;;;;5051828;28;20186;-84
2022/09/25 05:54:09;;;;;;;91.60;29.40;;;;;;;;;;5063587;28;20187;-84
2022/09/25 05:57:13;;;;;;;60.50;25.57;;;;;;;;;;5052348;28;20206;-83
2022/09/25 06:00:19;;;;;;;63.63;23.73;;;;;;;;;;5053969;28;20183;-82
2022/09/25 06:03:24;;;;;;;69.13;23.70;;;;;;;;;;5065335;28;20233;-83
2022/09/25 06:06:30;;;;;;;90.17;23.13;;;;;;;;;;5088108;28;20183;-83
2022/09/25 06:09:35;;;;;;;42.23;21.77;;;;;;;;;;5088414;28;20574;-83
2022/09/25 06:12:39;;;;;;;33.73;24.40;;;;;;;;;;5076504;28;20713;-82
2022/09/25 06:15:43;;;;;;;49.33;23.27;;;;;;;;;;5064437;28;20220;-82
2022/09/25 06:18:48;;;;;;;98.33;26.50;;;;;;;;;;5065034;28;20178;-83
2022/09/25 06:21:52;;;;;;;31.10;22.87;;;;;;;;;;5067789;28;20214;-83
2022/09/25 06:24:56;;;;;;;61.57;23.67;;;;;;;;;;5067231;28;20182;-83
2022/09/25 06:28:01;;;;;;;92.53;25.63;;;;;;;;;;5067385;28;20215;-83
2022/09/25 06:31:06;;;;;;;56.63;21.97;;;;;;;;;;5056282;28;20183;-83
2022/09/25 06:34:11;;;;;;;32.07;21.50;;;;;;;;;;5066832;28;20650;-80
2022/09/25 06:37:15;;;;;;;26.63;20.00;;;;;;;;;;5070769;28;20540;-79
2022/09/25 06:40:20;;;;;;;32.20;21.23;;;;;;;;;;5081636;28;20214;-80
2022/09/25 06:43:24;;;;;;;29.50;21.07;;;;;;;;;;5093881;28;20241;-80
2022/09/25 06:46:28;;;;;;;28.43;20.67;;;;;;;;;;5070036;28;20205;-82
2022/09/25 06:49:32;;;;;;;24.10;19.27;;;;;;;;;;5066733;28;20207;-81
2022/09/25 06:52:42;;;;;;;26.73;21.47;;;;;;;;;;5065758;28;20218;-81
2022/09/25 06:55:47;;;;;;;29.57;21.90;;;;;;;;;;5069551;28;20210;-81
2022/09/25 06:58:51;;;;;;;28.17;22.17;;;;;;;;;;5082330;28;20186;-81
2022/09/25 07:03:43;;;;;;;24.33;19.50;;;;;;;;;;5080095;28;20222;-81
2022/09/25 07:05:20;;;;;;;32.80;20.57;;;;;;;;;;5080669;28;20210;-81
2022/09/25 07:08:25;;;;;;;33.17;20.03;;;;;;;;;;5068356;28;20210;-80
2022/09/25 07:11:30;;;;;;;26.50;21.60;;;;;;;;;;5070624;28;20585;-81
2022/09/25 07:14:34;;;;;;;23.80;19.63;;;;;;;;;;5080674;28;20187;-81
2022/09/25 07:17:42;;;;;;;30.90;20.47;;;;;;;;;;5067406;28;20190;-81
2022/09/25 07:20:47;;;;;;;27.23;21.80;;;;;;;;;;5078745;28;20198;-80
2022/09/25 07:23:51;;;;;;;25.27;20.07;;;;;;;;;;5079751;28;20202;-81
2022/09/25 07:26:55;;;;;;;27.67;21.40;;;;;;;;;;5079517;28;20622;-81
2022/09/25 07:30:01;;;;;;;24.83;19.40;;;;;;;;;;5082442;28;20179;-81
2022/09/25 07:33:06;;;;;;;28.67;20.03;;;;;;;;;;5079391;28;20221;-81
2022/09/25 07:36:10;;;;;;;28.80;18.93;;;;;;;;;;5056713;28;20186;-81
2022/09/25 07:39:15;;;;;;;27.90;22.17;;;;;;;;;;5069752;28;20516;-81
2022/09/25 07:42:19;;;;;;;34.80;21.73;;;;;;;;;;5078497;28;20226;-81
2022/09/25 07:45:24;;;;;;;32.43;26.07;;;;;;;;;;5054893;28;20182;-80
2022/09/25 07:48:30;;;;;;;29.80;22.27;;;;;;;;;;5078066;28;20211;-80
2022/09/25 07:51:34;;;;;;;27.97;20.33;;;;;;;;;;5078137;28;20191;-80
2022/09/25 07:54:38;;;;;;;22.90;17.33;;;;;;;;;;5080123;28;20199;-82
2022/09/25 07:57:42;;;;;;;29.27;20.07;;;;;;;;;;5066951;28;20187;-81
2022/09/25 08:00:47;;;;;;;30.97;21.83;;;;;;;;;;5067577;28;20654;-81
2022/09/25 08:03:51;;;;;;;28.43;20.83;;;;;;;;;;5080092;28;20550;-81
2022/09/25 08:06:58;;;;;;;36.23;23.87;;;;;;;;;;5067776;28;20574;-81
2022/09/25 08:10:02;;;;;;;35.67;24.53;;;;;;;;;;5067635;28;20661;-81
2022/09/25 08:13:06;;;;;;;34.70;23.13;;;;;;;;;;5090101;28;20222;-81
2022/09/25 08:16:14;;;;;;;32.40;22.70;;;;;;;;;;5067212;28;20183;-81
2022/09/25 08:19:19;;;;;;;30.37;21.10;;;;;;;;;;5080188;28;20187;-81
2022/09/25 08:22:24;;;;;;;39.60;23.33;;;;;;;;;;5081743;28;20709;-81
2022/09/25 08:25:28;;;;;;;30.73;20.83;;;;;;;;;;5083361;28;20190;-81
2022/09/25 08:28:33;;;;;;;32.07;22.57;;;;;;;;;;5082438;28;20678;-81
2022/09/25 08:31:37;;;;;;;44.17;32.20;;;;;;;;;;5070794;28;20571;-81
2022/09/25 08:34:42;;;;;;;36.97;24.67;;;;;;;;;;5081984;28;20179;-81
2022/09/25 08:37:47;;;;;;;34.03;22.60;;;;;;;;;;5070583;28;20653;-81
2022/09/25 08:41:22;;;;;;;33.10;21.47;;;;;;;;;;5082182;28;20198;-81
2022/09/25 08:49:00;;;;;;;30.67;20.40;;;;;;;;;;5082622;28;20642;-81
2022/09/25 08:51:48;;;;;;;31.73;21.60;;;;;;;;;;5081264;28;20222;-81
2022/09/25 08:54:53;;;;;;;32.10;22.37;;;;;;;;;;5093358;28;20206;-81
2022/09/25 08:57:58;;;;;;;34.90;22.47;;;;;;;;;;5081716;28;20182;-81
2022/09/25 09:01:05;;;;;;;33.87;20.87;;;;;;;;;;5082370;28;20197;-80
2022/09/25 09:04:30;;;;;;;27.47;20.03;;;;;;;;;;5069076;28;20559;-80
2022/09/25 09:07:39;;;;;;;28.63;20.10;;;;;;;;;;5081895;28;20187;-81
2022/09/25 09:11:06;;;;;;;29.97;20.10;;;;;;;;;;5081595;28;20179;-81
2022/09/25 09:14:15;;;;;;;37.33;23.10;;;;;;;;;;5080239;28;20182;-80
2022/09/25 09:17:25;;;;;;;240.30;130.37;;;;;;;;;;5069412;28;20191;-81
2022/09/25 09:20:51;;;;;;;50.07;32.73;;;;;;;;;;5069478;28;20187;-81
2022/09/25 09:24:05;;;;;;;35.50;20.20;;;;;;;;;;5069785;28;20190;-81
2022/09/25 09:27:40;;;;;;;35.23;27.63;;;;;;;;;;5080738;28;20190;-81
2022/09/25 09:31:11;;;;;;;29.57;21.93;;;;;;;;;;5080310;28;20183;-81
2022/09/25 09:34:37;;;;;;;25.83;20.07;;;;;;;;;;5068698;28;20183;-81
2022/09/25 09:38:27;;;;;;;34.43;28.73;;;;;;;;;;5091264;28;20191;-81
2022/09/25 09:42:01;;;;;;;24.40;18.57;;;;;;;;;;5068410;28;20190;-81
2022/09/25 09:45:27;;;;;;;19.90;15.10;;;;;;;;;;5080747;28;20187;-80
2022/09/25 09:48:43;;;;;;;25.27;18.60;;;;;;;;;;5080864;28;20211;-81
2022/09/25 09:51:56;;;;;;;24.63;17.83;;;;;;;;;;5081071;28;20216;-81
2022/09/25 09:55:18;;;;;;;29.00;20.80;;;;;;;;;;5069197;28;20183;-81
2022/09/25 09:58:29;;;;;;;29.90;20.17;;;;;;;;;;5081559;28;20186;-81
2022/09/25 10:01:36;;;;;;;27.40;20.77;;;;;;;;;;5069764;28;20195;-81
2022/09/25 10:04:42;;;;;;;40.30;31.97;;;;;;;;;;5092269;28;20182;-81
2022/09/25 10:07:48;;;;;;;27.27;20.97;;;;;;;;;;5069245;28;20207;-81
2022/09/25 10:10:53;;;;;;;25.23;17.40;;;;;;;;;;5069817;28;20187;-81
2022/09/25 10:14:02;;;;;;;21.80;15.93;;;;;;;;;;5069792;28;20187;-81
2022/09/25 10:17:10;;;;;;;22.57;16.13;;;;;;;;;;5081428;28;20182;-81
2022/09/25 10:20:19;;;;;;;22.47;17.13;;;;;;;;;;5066838;28;20179;-81
2022/09/25 10:23:45;;;;;;;22.30;16.40;;;;;;;;;;5076934;28;20214;-81
2022/09/25 10:26:49;;;;;;;19.80;15.33;;;;;;;;;;5066319;28;20183;-81
2022/09/25 10:30:20;;;;;;;18.80;15.10;;;;;;;;;;5065970;28;20218;-81
2022/09/25 10:33:28;;;;;;;17.00;13.57;;;;;;;;;;5076640;28;20242;-81
2022/09/25 10:36:48;;;;;;;22.50;15.93;;;;;;;;;;5088421;28;20187;-81
2022/09/25 10:40:21;;;;;;;18.93;14.43;;;;;;;;;;5065678;28;20198;-81
2022/09/25 10:43:25;;;;;;;25.83;17.63;;;;;;;;;;5077043;28;20223;-81
2022/09/25 10:50:11;;;;;;;27.50;19.57;;;;;;;;;;5077749;28;20218;-82
2022/09/25 10:53:29;;;;;;;31.43;21.47;;;;;;;;;;5076715;28;20222;-81
2022/09/25 10:56:37;;;;;;;28.87;20.17;;;;;;;;;;5077104;28;20215;-81
2022/09/25 10:59:49;;;;;;;26.60;19.30;;;;;;;;;;5088725;28;20187;-81
2022/09/25 11:02:59;;;;;;;38.53;29.53;;;;;;;;;;5088532;28;20218;-81
2022/09/25 11:06:19;;;;;;;33.00;22.50;;;;;;;;;;5066047;28;20539;-81
2022/09/25 11:09:25;;;;;;;27.20;19.97;;;;;;;;;;5077221;28;20332;-82
2022/09/25 11:12:31;;;;;;;24.47;18.90;;;;;;;;;;5076900;28;20605;-81
2022/09/25 11:15:37;;;;;;;25.17;18.00;;;;;;;;;;5065639;28;20202;-82
2022/09/25 11:19:10;;;;;;;24.57;17.20;;;;;;;;;;5065759;28;20186;-81
2022/09/25 11:22:34;;;;;;;23.60;15.47;;;;;;;;;;5077101;28;20218;-81
2022/09/25 11:26:07;;;;;;;21.53;16.60;;;;;;;;;;5077131;28;20646;-82
2022/09/25 11:29:37;;;;;;;21.00;15.77;;;;;;;;;;5076672;28;20222;-81
2022/09/25 11:33:31;;;;;;;21.40;15.70;;;;;;;;;;5078071;28;20705;-81
2022/09/25 11:36:42;;;;;;;21.17;15.20;;;;;;;;;;5035633;28;20188;-81
2022/09/25 11:43:37;;;;;;;22.30;17.03;;;;;;;;;;5077830;28;20221;-81
2022/09/25 11:46:53;;;;;;;21.93;16.77;;;;;;;;;;5065484;28;20187;-81
2022/09/25 11:50:01;;;;;;;23.00;17.43;;;;;;;;;;5065530;28;20226;-81
2022/09/25 11:53:21;;;;;;;22.20;17.07;;;;;;;;;;5065749;28;20230;-81
2022/09/25 11:56:36;;;;;;;21.93;15.70;;;;;;;;;;5057497;28;20222;-82
2022/09/25 12:00:14;;;;;;;24.50;17.77;;;;;;;;;;5092134;28;20206;-81
2022/09/25 12:03:34;;;;;;;35.90;24.90;;;;;;;;;;5069169;28;20230;-82
2022/09/25 12:07:00;;;;;;;58.23;41.83;;;;;;;;;;5081291;28;20193;-81
2022/09/25 12:10:32;;;;;;;45.13;33.60;;;;;;;;;;5069239;28;20226;-82
2022/09/25 12:13:43;;;;;;;31.40;23.03;;;;;;;;;;5069382;28;20226;-82
2022/09/25 12:16:59;;;;;;;27.20;18.97;;;;;;;;;;5069561;28;20186;-81
2022/09/25 12:20:12;;;;;;;17.87;13.43;;;;;;;;;;5069059;28;20503;-82
2022/09/25 12:23:25;;;;;;;15.97;12.40;;;;;;;;;;5058201;28;20222;-82
2022/09/25 12:26:38;;;;;;;16.07;12.60;;;;;;;;;;5070503;28;20187;-82
2022/09/25 12:30:05;;;;;;;13.43;10.90;;;;;;;;;;5058323;28;20685;-82
2022/09/25 12:33:22;;;;;;;12.53;10.70;;;;;;;;;;5070199;28;20706;-82
2022/09/25 12:36:35;;;;;;;13.07;10.80;;;;;;;;;;5070448;28;20182;-82
2022/09/25 12:39:45;;;;;;;15.13;10.60;;;;;;;;;;5070946;28;20202;-83
2022/09/25 12:42:58;;;;;;;12.03;9.50;;;;;;;;;;5082143;28;20226;-83
2022/09/25 12:46:24;;;;;;;12.77;10.53;;;;;;;;;;5069402;28;20220;-83
2022/09/25 12:49:39;;;;;;;12.63;10.37;;;;;;;;;;5080691;28;20206;-82
2022/09/25 12:52:56;;;;;;;12.53;9.67;;;;;;;;;;5069351;28;20222;-82
2022/09/25 12:56:09;;;;;;;10.87;8.67;;;;;;;;;;5069801;28;20689;-83
2022/09/25 12:59:36;;;;;;;10.33;8.87;;;;;;;;;;5070083;28;20175;-82
2022/09/25 13:02:44;;;;;;;11.70;9.80;;;;;;;;;;5069889;28;20240;-83
2022/09/25 13:06:02;;;;;;;16.90;13.00;;;;;;;;;;5057279;28;20201;-82
2022/09/25 13:09:19;;;;;;;23.67;16.13;;;;;;;;;;5069601;28;20207;-83
2022/09/25 13:12:33;;;;;;;14.93;10.27;;;;;;;;;;5067955;28;20226;-83
2022/09/25 13:15:39;;;;;;;10.73;9.27;;;;;;;;;;5079609;28;20186;-83
2022/09/25 13:18:48;;;;;;;12.70;9.80;;;;;;;;;;5067688;28;20210;-83
2022/09/25 13:22:23;;;;;;;9.67;8.67;;;;;;;;;;5079647;28;20215;-83
2022/09/25 13:25:28;;;;;;;10.27;8.60;;;;;;;;;;5056416;28;20180;-83
2022/09/25 13:28:40;;;;;;;13.67;9.67;;;;;;;;;;5079872;28;20191;-83
2022/09/25 13:31:45;;;;;;;13.77;11.10;;;;;;;;;;5068041;28;20220;-83
2022/09/25 13:35:00;;;;;;;12.47;10.83;;;;;;;;;;5067686;28;20183;-83
2022/09/25 13:40:41;;;;;;;12.20;10.67;;;;;;;;;;5067632;28;20182;-82
2022/09/25 13:42:06;;;;;;;10.90;9.80;;;;;;;;;;5067695;28;20230;-83
2022/09/25 13:45:32;;;;;;;12.63;9.77;;;;;;;;;;5090524;28;20192;-83
2022/09/25 13:48:36;;;;;;;11.77;8.87;;;;;;;;;;5067079;28;20187;-83
2022/09/25 13:51:43;;;;;;;10.53;9.43;;;;;;;;;;5066724;28;20594;-83
2022/09/25 13:54:48;;;;;;;11.63;9.10;;;;;;;;;;5078473;28;20206;-83
2022/09/25 13:57:57;;;;;;;10.93;8.90;;;;;;;;;;5079078;28;20661;-82
2022/09/25 14:01:02;;;;;;;8.83;7.83;;;;;;;;;;5055970;28;20180;-83
2022/09/25 14:04:14;;;;;;;9.97;8.87;;;;;;;;;;5078579;28;20539;-83
2022/09/25 14:07:23;;;;;;;10.70;8.57;;;;;;;;;;5055325;28;20183;-83
2022/09/25 14:10:28;;;;;;;11.00;9.20;;;;;;;;;;5067051;28;20234;-83
2022/09/25 14:13:32;;;;;;;10.50;8.10;;;;;;;;;;5054912;28;20232;-83
2022/09/25 14:16:45;;;;;;;10.10;8.53;;;;;;;;;;5066052;28;20191;-83
2022/09/25 14:19:52;;;;;;;15.30;9.30;;;;;;;;;;5054998;28;20188;-84
2022/09/25 14:23:19;;;;;;;10.97;8.97;;;;;;;;;;5054016;28;20226;-83
2022/09/25 14:26:25;;;;;;;8.20;7.30;;;;;;;;;;5055953;28;20191;-83
2022/09/25 14:29:37;;;;;;;9.53;7.63;;;;;;;;;;5078516;28;20175;-83
2022/09/25 14:32:55;;;;;;;10.90;7.73;;;;;;;;;;5077469;28;20575;-83
2022/09/25 14:36:10;;;;;;;8.97;7.97;;;;;;;;;;5065998;28;20529;-83
2022/09/25 14:39:28;;;;;;;7.97;7.17;;;;;;;;;;5077701;28;20627;-83
2022/09/25 14:42:50;;;;;;;7.63;6.47;;;;;;;;;;5066238;28;20215;-83
2022/09/25 14:46:01;;;;;;;7.73;6.93;;;;;;;;;;5053248;28;20561;-83
2022/09/25 14:49:11;;;;;;;7.37;5.97;;;;;;;;;;5065904;28;20528;-83
2022/09/25 14:52:22;;;;;;;6.90;5.77;;;;;;;;;;5065700;28;20207;-83
2022/09/25 14:55:34;;;;;;;7.73;4.93;;;;;;;;;;5066158;28;20207;-83
2022/09/25 14:58:45;;;;;;;6.17;5.20;;;;;;;;;;5066390;28;20179;-82
2022/09/25 15:01:51;;;;;;;7.53;5.80;;;;;;;;;;5054562;28;20207;-83
2022/09/25 15:04:57;;;;;;;7.87;5.53;;;;;;;;;;5078098;28;20171;-83
2022/09/25 15:08:23;;;;;;;11.70;5.27;;;;;;;;;;5079474;28;20183;-82
2022/09/25 15:11:39;;;;;;;8.03;5.47;;;;;;;;;;5066234;28;20215;-83
2022/09/25 15:15:09;;;;;;;8.37;5.87;;;;;;;;;;5066121;28;20176;-83
2022/09/25 15:18:14;;;;;;;5.70;5.03;;;;;;;;;;5055203;28;20179;-83
2022/09/25 15:21:34;;;;;;;6.53;5.17;;;;;;;;;;5054476;28;20175;-82
2022/09/25 15:24:46;;;;;;;6.63;5.57;;;;;;;;;;5066918;28;20184;-83
2022/09/25 15:27:51;;;;;;;9.83;5.40;;;;;;;;;;5065547;28;20176;-82
2022/09/25 15:31:00;;;;;;;7.07;5.83;;;;;;;;;;5058834;28;20202;-82
2022/09/25 15:34:13;;;;;;;7.27;5.90;;;;;;;;;;5070586;28;20651;-83
2022/09/25 15:37:25;;;;;;;7.87;5.53;;;;;;;;;;5058681;28;20180;-83
2022/09/25 15:40:29;;;;;;;6.00;5.40;;;;;;;;;;5070820;28;20179;-82
2022/09/25 15:43:34;;;;;;;7.40;6.33;;;;;;;;;;5082259;28;20219;-82
2022/09/25 15:46:42;;;;;;;7.73;6.53;;;;;;;;;;5059244;28;20180;-82
2022/09/25 15:49:47;;;;;;;9.00;6.50;;;;;;;;;;5083390;28;20184;-82
2022/09/25 15:52:56;;;;;;;6.77;6.03;;;;;;;;;;5093616;28;20686;-83
2022/09/25 15:56:14;;;;;;;8.17;7.17;;;;;;;;;;5059321;28;20199;-82
2022/09/25 15:59:35;;;;;;;8.77;7.87;;;;;;;;;;5058516;28;20188;-82
2022/09/25 16:06:17;;;;;;;7.97;6.00;;;;;;;;;;5070500;28;20176;-82
2022/09/25 16:09:29;;;;;;;7.97;5.60;;;;;;;;;;5059095;28;20188;-82
2022/09/25 16:12:44;;;;;;;7.00;5.33;;;;;;;;;;5070468;28;20219;-83
2022/09/25 16:15:50;;;;;;;9.03;6.20;;;;;;;;;;5070026;28;20175;-82
2022/09/25 16:18:56;;;;;;;5.80;5.07;;;;;;;;;;5080296;28;20511;-82
2022/09/25 16:22:22;;;;;;;14.57;5.87;;;;;;;;;;5056078;28;20207;-82
2022/09/25 16:25:32;;;;;;;10.47;6.17;;;;;;;;;;5056579;28;20642;-82
2022/09/25 16:28:36;;;;;;;11.60;5.93;;;;;;;;;;5079522;28;20187;-83
2022/09/25 16:31:42;;;;;;;7.17;5.37;;;;;;;;;;5067751;28;20218;-82
2022/09/25 16:35:04;;;;;;;10.30;5.73;;;;;;;;;;5056462;28;20180;-82
2022/09/25 16:38:37;;;;;;;8.17;6.20;;;;;;;;;;5055869;28;20180;-82
2022/09/25 16:41:49;;;;;;;7.23;5.30;;;;;;;;;;5078553;28;20212;-82
2022/09/25 16:45:28;;;;;;;7.23;5.57;;;;;;;;;;5078492;28;20183;-83
2022/09/25 16:48:37;;;;;;;7.17;5.77;;;;;;;;;;5066445;28;20180;-82
2022/09/25 16:51:44;;;;;;;7.60;5.80;;;;;;;;;;5089493;28;20228;-82
2022/09/25 16:54:52;;;;;;;8.13;5.97;;;;;;;;;;5078182;28;20195;-82
2022/09/25 16:57:57;;;;;;;7.30;5.50;;;;;;;;;;5066526;28;20195;-82
2022/09/25 17:01:03;;;;;;;8.30;5.90;;;;;;;;;;5066706;28;20176;-82
2022/09/25 17:04:08;;;;;;;7.93;5.67;;;;;;;;;;5066923;28;20195;-82
2022/09/25 17:07:17;;;;;;;6.37;5.47;;;;;;;;;;5066265;28;20528;-82
2022/09/25 17:10:31;;;;;;;6.83;5.40;;;;;;;;;;5066605;28;20180;-82
2022/09/25 17:13:35;;;;;;;8.60;6.00;;;;;;;;;;5054713;28;20215;-83
2022/09/25 17:16:39;;;;;;;7.70;6.13;;;;;;;;;;5066452;28;20171;-83
2022/09/25 17:19:43;;;;;;;9.13;6.43;;;;;;;;;;5066706;28;20179;-82
2022/09/25 17:22:49;;;;;;;8.90;6.17;;;;;;;;;;5066652;28;20211;-82
2022/09/25 17:26:00;;;;;;;8.00;5.97;;;;;;;;;;5066374;28;20184;-83
2022/09/25 17:29:05;;;;;;;6.83;5.77;;;;;;;;;;5055549;28;20176;-82
2022/09/25 17:32:13;;;;;;;7.93;5.53;;;;;;;;;;5054501;28;20563;-82
2022/09/25 17:35:46;;;;;;;7.17;5.43;;;;;;;;;;5066017;28;20192;-82
2022/09/25 17:38:50;;;;;;;8.47;5.90;;;;;;;;;;5066488;28;20515;-82
2022/09/25 17:41:54;;;;;;;7.70;6.10;;;;;;;;;;5065440;28;20215;-82
2022/09/25 17:44:58;;;;;;;8.40;6.60;;;;;;;;;;5054610;28;20650;-82
2022/09/25 17:48:03;;;;;;;11.03;6.87;;;;;;;;;;5089079;28;20183;-82
2022/09/25 17:51:19;;;;;;;9.03;6.93;;;;;;;;;;5053875;28;20210;-82
2022/09/25 17:54:24;;;;;;;9.60;6.73;;;;;;;;;;5077157;28;20180;-82
2022/09/25 17:57:28;;;;;;;13.27;11.13;;;;;;;;;;5072558;28;20183;-82
2022/09/25 18:00:32;;;;;;;18.60;16.13;;;;;;;;;;5065719;28;20203;-82
2022/09/25 18:03:36;;;;;;;14.83;13.37;;;;;;;;;;5065030;28;20226;-81
2022/09/25 18:06:42;;;;;;;11.37;10.10;;;;;;;;;;5077243;28;20186;-83
2022/09/25 18:09:46;;;;;;;10.37;7.30;;;;;;;;;;5088980;28;20202;-83
2022/09/25 18:12:50;;;;;;;10.10;7.00;;;;;;;;;;5064980;28;20234;-83
2022/09/25 18:15:57;;;;;;;9.30;7.03;;;;;;;;;;5066024;28;20180;-84
2022/09/25 18:22:25;;;;;;;10.90;7.10;;;;;;;;;;5076709;28;20215;-82
2022/09/25 18:25:36;;;;;;;9.40;6.87;;;;;;;;;;5053354;28;20172;-82
2022/09/25 18:28:40;;;;;;;10.37;7.37;;;;;;;;;;5064946;28;20571;-84
2022/09/25 18:31:45;;;;;;;11.10;8.03;;;;;;;;;;5076307;28;20219;-82
2022/09/25 18:34:50;;;;;;;12.60;11.10;;;;;;;;;;5065521;28;20179;-83
2022/09/25 18:37:57;;;;;;;15.30;13.70;;;;;;;;;;5075754;28;20206;-84
2022/09/25 18:41:03;;;;;;;15.27;11.87;;;;;;;;;;5053074;28;20202;-83
2022/09/25 18:44:07;;;;;;;11.53;10.23;;;;;;;;;;5053702;28;20187;-83
2022/09/25 18:47:12;;;;;;;14.80;9.83;;;;;;;;;;5064503;28;20183;-83
2022/09/25 18:50:16;;;;;;;13.87;9.83;;;;;;;;;;5064845;28;20179;-83
2022/09/25 18:53:21;;;;;;;10.37;8.67;;;;;;;;;;5064131;28;20207;-83
2022/09/25 18:56:27;;;;;;;11.60;9.33;;;;;;;;;;5052733;28;20212;-81
2022/09/25 18:59:31;;;;;;;11.17;8.67;;;;;;;;;;5064537;28;20201;-81